Time;durP1;ratioP1;P1;durP2;ratioP2;P2;SDS_P1;SDS_P2;PMS_P1;PMS_P2;Temp;Humidity;BMP_temperature;BMP_pressure;BME280_temperature;BME280_humidity;BME280_pressure;Samples;Min_cycle;Max_cycle;Signal;HPM_P1;HPM_P2
2022/05/10 00:00:49;;;;;;;15.23;5.13;;;;;;;;;;5092770;28;20071;-67
2022/05/10 00:03:15;;;;;;;13.50;5.15;;;;;;;;;;5091904;28;20044;-66
2022/05/10 00:05:42;;;;;;;12.60;4.85;;;;;;;;;;5092030;28;20048;-67
2022/05/10 00:08:13;;;;;;;16.65;4.90;;;;;;;;;;5093179;28;20046;-67
2022/05/10 00:10:40;;;;;;;7.28;4.35;;;;;;;;;;5091889;28;20076;-67
2022/05/10 00:13:06;;;;;;;12.52;4.82;;;;;;;;;;5093144;28;20051;-67
2022/05/10 00:15:32;;;;;;;10.75;4.28;;;;;;;;;;5093068;28;20051;-67
2022/05/10 00:17:58;;;;;;;10.45;4.40;;;;;;;;;;5092091;28;20044;-67
2022/05/10 00:20:25;;;;;;;11.63;4.57;;;;;;;;;;5091975;28;20130;-67
2022/05/10 00:22:51;;;;;;;13.40;5.55;;;;;;;;;;5091805;28;20112;-67
2022/05/10 00:25:19;;;;;;;14.88;5.75;;;;;;;;;;5092924;28;20051;-67
2022/05/10 00:27:45;;;;;;;13.70;5.93;;;;;;;;;;5092960;28;20047;-67
2022/05/10 00:30:11;;;;;;;16.83;5.30;;;;;;;;;;5091501;28;20052;-67
2022/05/10 00:32:38;;;;;;;10.82;6.28;;;;;;;;;;5091541;28;20055;-67
2022/05/10 00:35:06;;;;;;;15.45;6.40;;;;;;;;;;5092865;28;20040;-67
2022/05/10 00:37:32;;;;;;;20.08;6.60;;;;;;;;;;5074730;28;20040;-67
2022/05/10 00:39:58;;;;;;;18.67;7.18;;;;;;;;;;5092965;28;20097;-67
2022/05/10 00:42:30;;;;;;;15.98;7.32;;;;;;;;;;5092904;28;20052;-67
2022/05/10 00:45:03;;;;;;;12.25;7.18;;;;;;;;;;5092845;28;20047;-67
2022/05/10 00:47:29;;;;;;;13.00;7.25;;;;;;;;;;5092764;28;20082;-67
2022/05/10 00:49:54;;;;;;;13.15;6.72;;;;;;;;;;5091736;28;20084;-67
2022/05/10 00:52:26;;;;;;;14.73;8.13;;;;;;;;;;5092508;28;20048;-67
2022/05/10 00:55:05;;;;;;;14.88;7.63;;;;;;;;;;5092819;28;20044;-67
2022/05/10 00:57:31;;;;;;;;;;;;;;;;;;5093137;28;20044;-67
2022/05/10 01:00:03;;;;;;;14.95;7.95;;;;;;;;;;5092574;28;19973;-67
2022/05/10 01:02:34;;;;;;;19.83;8.98;;;;;;;;;;5091332;28;20047;-67
2022/05/10 01:05:05;;;;;;;17.70;10.00;;;;;;;;;;5092442;28;20462;-67
2022/05/10 01:07:33;;;;;;;18.95;9.55;;;;;;;;;;5092759;28;20040;-67
2022/05/10 01:10:06;;;;;;;16.73;9.63;;;;;;;;;;5091490;28;20043;-67
2022/05/10 01:12:35;;;;;;;19.45;10.18;;;;;;;;;;5096166;28;20119;-67
2022/05/10 01:15:30;;;;;;;21.27;11.70;;;;;;;;;;5096432;28;20089;-67
2022/05/10 01:17:58;;;;;;;19.92;10.55;;;;;;;;;;5091800;28;20048;-67
2022/05/10 01:20:28;;;;;;;16.50;10.93;;;;;;;;;;5095156;28;20044;-67
2022/05/10 01:23:02;;;;;;;20.17;12.15;;;;;;;;;;5096400;28;20036;-67
2022/05/10 01:25:34;;;;;;;18.20;11.55;;;;;;;;;;5096295;28;20100;-67
2022/05/10 01:28:12;;;;;;;19.23;11.20;;;;;;;;;;5096475;28;20055;-66
2022/05/10 01:30:38;;;;;;;18.67;12.25;;;;;;;;;;5096350;28;20055;-67
2022/05/10 01:35:52;;;;;;;20.23;11.68;;;;;;;;;;5096501;28;20059;-67
2022/05/10 01:38:41;;;;;;;20.15;12.52;;;;;;;;;;5094999;28;20051;-67
2022/05/10 01:41:12;;;;;;;18.60;12.00;;;;;;;;;;5096143;28;20093;-67
2022/05/10 01:43:48;;;;;;;24.17;13.68;;;;;;;;;;5094746;28;20040;-67
2022/05/10 01:46:20;;;;;;;19.20;13.20;;;;;;;;;;5096054;28;20495;-67
2022/05/10 01:48:48;;;;;;;23.42;13.15;;;;;;;;;;5095713;28;20465;-67
2022/05/10 01:51:26;;;;;;;24.25;13.90;;;;;;;;;;5095994;28;20112;-67
2022/05/10 01:53:52;;;;;;;16.70;10.95;;;;;;;;;;5095678;28;20048;-67
2022/05/10 01:56:21;;;;;;;21.58;13.52;;;;;;;;;;5095781;28;20119;-67
2022/05/10 01:58:47;;;;;;;18.67;12.57;;;;;;;;;;5095853;28;20079;-67
2022/05/10 02:01:24;;;;;;;19.90;12.20;;;;;;;;;;5095519;28;20110;-67
2022/05/10 02:03:53;;;;;;;18.45;12.23;;;;;;;;;;5094340;28;20051;-67
2022/05/10 02:06:25;;;;;;;25.38;13.63;;;;;;;;;;5095481;28;20515;-67
2022/05/10 02:08:55;;;;;;;26.63;12.98;;;;;;;;;;5095570;28;20042;-67
2022/05/10 02:11:21;;;;;;;29.40;12.80;;;;;;;;;;5095584;28;20040;-67
2022/05/10 02:13:56;;;;;;;24.38;13.40;;;;;;;;;;5094040;28;20499;-67
2022/05/10 02:16:22;;;;;;;17.98;12.00;;;;;;;;;;5096355;28;20119;-67
2022/05/10 02:18:51;;;;;;;19.00;13.48;;;;;;;;;;5096162;28;20467;-67
2022/05/10 02:21:19;;;;;;;20.25;13.35;;;;;;;;;;5095378;28;20044;-67
2022/05/10 02:23:52;;;;;;;20.13;13.02;;;;;;;;;;5094361;28;20124;-67
2022/05/10 02:26:24;;;;;;;21.15;12.85;;;;;;;;;;5095348;28;20048;-67
2022/05/10 02:29:00;;;;;;;20.85;12.07;;;;;;;;;;5093907;28;20411;-67
2022/05/10 02:31:30;;;;;;;19.95;12.68;;;;;;;;;;5095213;28;20044;-67
2022/05/10 02:33:57;;;;;;;22.63;13.05;;;;;;;;;;5095143;28;20380;-67
2022/05/10 02:36:23;;;;;;;19.85;11.82;;;;;;;;;;5094701;28;20513;-67
2022/05/10 02:38:49;;;;;;;16.48;12.23;;;;;;;;;;5095114;28;20040;-67
2022/05/10 02:41:20;;;;;;;22.45;14.00;;;;;;;;;;5093687;28;20563;-67
2022/05/10 02:43:48;;;;;;;21.00;13.52;;;;;;;;;;5094849;28;20494;-66
2022/05/10 02:46:14;;;;;;;27.40;14.98;;;;;;;;;;5094916;28;20044;-67
2022/05/10 02:48:40;;;;;;;24.67;13.30;;;;;;;;;;5094647;28;20048;-67
2022/05/10 02:51:06;;;;;;;23.88;13.57;;;;;;;;;;5094608;28;20397;-67
2022/05/10 02:53:32;;;;;;;23.50;14.48;;;;;;;;;;5094697;28;20052;-67
2022/05/10 02:56:03;;;;;;;23.95;13.95;;;;;;;;;;5093484;28;20054;-67
2022/05/10 02:58:43;;;;;;;25.95;15.98;;;;;;;;;;5094519;28;20047;-67
2022/05/10 03:01:19;;;;;;;25.20;14.23;;;;;;;;;;5093350;28;20051;-67
2022/05/10 03:03:46;;;;;;;26.33;15.40;;;;;;;;;;5094596;28;20376;-67
2022/05/10 03:06:23;;;;;;;22.35;14.93;;;;;;;;;;5093035;28;20456;-67
2022/05/10 03:08:49;;;;;;;23.77;15.55;;;;;;;;;;5094472;28;20040;-67
2022/05/10 03:11:15;;;;;;;27.02;15.85;;;;;;;;;;5093065;28;20044;-67
2022/05/10 03:13:43;;;;;;;28.23;15.75;;;;;;;;;;5094162;28;20497;-67
2022/05/10 03:16:09;;;;;;;27.17;16.55;;;;;;;;;;5094430;28;20100;-67
2022/05/10 03:18:35;;;;;;;22.85;15.85;;;;;;;;;;5094353;28;20052;-67
2022/05/10 03:21:01;;;;;;;25.58;16.70;;;;;;;;;;5093153;28;20043;-67
2022/05/10 03:23:27;;;;;;;30.40;16.42;;;;;;;;;;5092755;28;20055;-67
2022/05/10 03:25:55;;;;;;;26.73;18.33;;;;;;;;;;5093796;28;20050;-67
2022/05/10 03:28:21;;;;;;;25.35;16.70;;;;;;;;;;5092560;28;20054;-67
2022/05/10 03:30:47;;;;;;;26.23;17.48;;;;;;;;;;5093931;28;20502;-67
2022/05/10 03:33:13;;;;;;;34.75;17.85;;;;;;;;;;5093896;28;20080;-67
2022/05/10 03:35:39;;;;;;;33.00;16.70;;;;;;;;;;5094056;28;20051;-67
2022/05/10 03:38:05;;;;;;;29.83;18.00;;;;;;;;;;5093848;28;20040;-67
2022/05/10 03:40:31;;;;;;;30.42;17.13;;;;;;;;;;5092689;28;20032;-67
2022/05/10 03:42:57;;;;;;;27.33;17.55;;;;;;;;;;5092593;28;20407;-67
2022/05/10 03:45:23;;;;;;;29.75;17.40;;;;;;;;;;5093540;28;20043;-66
2022/05/10 03:47:50;;;;;;;29.25;16.67;;;;;;;;;;5093828;28;20129;-66
2022/05/10 03:50:19;;;;;;;29.85;18.55;;;;;;;;;;5093602;28;20501;-67
2022/05/10 03:52:45;;;;;;;30.05;18.63;;;;;;;;;;5093489;28;20048;-66
2022/05/10 03:55:13;;;;;;;25.08;17.75;;;;;;;;;;5093547;28;20040;-66
2022/05/10 03:57:39;;;;;;;27.33;18.42;;;;;;;;;;5092036;28;20055;-67
2022/05/10 04:00:08;;;;;;;32.78;18.40;;;;;;;;;;5092191;28;20048;-66
2022/05/10 04:02:34;;;;;;;34.40;18.48;;;;;;;;;;5093299;28;20525;-67
2022/05/10 04:05:00;;;;;;;23.15;16.73;;;;;;;;;;5093428;28;20256;-67
2022/05/10 04:07:27;;;;;;;31.98;18.13;;;;;;;;;;5093312;28;20036;-67
2022/05/10 04:09:52;;;;;;;35.53;17.90;;;;;;;;;;5093564;28;20047;-67
2022/05/10 04:12:18;;;;;;;45.38;18.75;;;;;;;;;;5092873;28;20105;-67
2022/05/10 04:14:44;;;;;;;26.48;17.27;;;;;;;;;;5093245;28;20036;-67
2022/05/10 04:17:10;;;;;;;32.38;17.17;;;;;;;;;;5093256;28;20078;-67
2022/05/10 04:19:36;;;;;;;33.20;18.38;;;;;;;;;;5093132;28;20047;-67
2022/05/10 04:22:02;;;;;;;22.27;16.70;;;;;;;;;;5091773;28;20055;-67
2022/05/10 04:24:28;;;;;;;25.30;18.05;;;;;;;;;;5092913;28;20180;-67
2022/05/10 04:26:54;;;;;;;28.75;17.60;;;;;;;;;;5075035;28;20118;-67
2022/05/10 04:29:20;;;;;;;39.03;18.60;;;;;;;;;;5092675;28;20533;-67
2022/05/10 04:31:46;;;;;;;31.33;17.77;;;;;;;;;;5091762;28;20051;-67
2022/05/10 04:34:12;;;;;;;47.58;20.05;;;;;;;;;;5092817;28;20510;-67
2022/05/10 04:36:38;;;;;;;39.25;17.60;;;;;;;;;;5093066;28;20043;-67
2022/05/10 04:39:05;;;;;;;64.22;24.33;;;;;;;;;;5092811;28;20036;-67
2022/05/10 04:41:33;;;;;;;28.00;16.27;;;;;;;;;;5092933;28;20044;-67
2022/05/10 04:44:03;;;;;;;40.47;18.35;;;;;;;;;;5091453;28;20052;-67
2022/05/10 04:46:30;;;;;;;149.68;39.92;;;;;;;;;;5091146;28;20048;-67
2022/05/10 04:48:56;;;;;;;206.00;46.95;;;;;;;;;;5092783;28;20051;-67
2022/05/10 04:51:22;;;;;;;46.25;19.63;;;;;;;;;;5092693;28;20459;-67
2022/05/10 04:53:48;;;;;;;32.30;17.52;;;;;;;;;;5092618;28;20040;-67
2022/05/10 04:56:14;;;;;;;64.68;22.60;;;;;;;;;;5092503;28;20047;-67
2022/05/10 04:58:41;;;;;;;32.35;17.52;;;;;;;;;;5092800;28;20044;-67
2022/05/10 05:01:08;;;;;;;25.40;16.65;;;;;;;;;;5093082;28;20044;-67
2022/05/10 05:03:34;;;;;;;24.00;16.05;;;;;;;;;;5092738;28;20040;-67
2022/05/10 05:06:00;;;;;;;30.48;16.90;;;;;;;;;;5092545;28;20122;-66
2022/05/10 05:08:26;;;;;;;39.90;17.70;;;;;;;;;;5091124;28;20043;-68
2022/05/10 05:10:53;;;;;;;35.28;16.27;;;;;;;;;;5091481;28;20056;-67
2022/05/10 05:13:19;;;;;;;20.40;14.68;;;;;;;;;;5091371;28;20047;-67
2022/05/10 05:15:45;;;;;;;24.02;14.20;;;;;;;;;;5091240;28;20037;-67
2022/05/10 05:18:12;;;;;;;28.90;16.33;;;;;;;;;;5092396;28;20071;-67
2022/05/10 05:20:40;;;;;;;25.50;14.27;;;;;;;;;;5091393;28;20052;-67
2022/05/10 05:23:08;;;;;;;35.35;15.63;;;;;;;;;;5090782;28;20051;-67
2022/05/10 05:25:38;;;;;;;42.50;16.83;;;;;;;;;;5092043;28;20457;-67
2022/05/10 05:28:04;;;;;;;24.30;15.77;;;;;;;;;;5090876;28;20498;-67
2022/05/10 05:30:31;;;;;;;24.48;15.23;;;;;;;;;;5092232;28;20062;-67
2022/05/10 05:32:57;;;;;;;19.38;14.38;;;;;;;;;;5092292;28;20093;-67
2022/05/10 05:35:23;;;;;;;24.55;15.82;;;;;;;;;;5092321;28;20044;-66
2022/05/10 05:37:50;;;;;;;24.45;17.33;;;;;;;;;;5092134;28;20044;-67
2022/05/10 05:40:17;;;;;;;25.30;16.08;;;;;;;;;;5092194;28;20054;-68
2022/05/10 05:42:43;;;;;;;28.65;15.80;;;;;;;;;;5092029;28;20113;-68
2022/05/10 05:45:10;;;;;;;24.55;15.15;;;;;;;;;;5092278;28;20051;-67
2022/05/10 05:47:36;;;;;;;27.38;16.50;;;;;;;;;;5092314;28;20076;-68
2022/05/10 05:50:03;;;;;;;27.80;16.58;;;;;;;;;;5092004;28;20067;-68
2022/05/10 05:52:29;;;;;;;23.88;15.57;;;;;;;;;;5090590;28;20044;-68
2022/05/10 05:54:55;;;;;;;37.85;17.90;;;;;;;;;;5092515;28;20051;-68
2022/05/10 05:57:21;;;;;;;19.90;14.93;;;;;;;;;;5090845;28;20127;-68
2022/05/10 05:59:48;;;;;;;25.48;15.18;;;;;;;;;;5095734;28;20040;-68
2022/05/10 06:02:15;;;;;;;27.60;16.50;;;;;;;;;;5077404;28;20048;-67
2022/05/10 06:04:41;;;;;;;25.08;15.50;;;;;;;;;;5095313;28;20039;-69
2022/05/10 06:07:09;;;;;;;38.83;17.52;;;;;;;;;;5096898;28;20044;-67
2022/05/10 06:09:35;;;;;;;31.07;16.40;;;;;;;;;;5095601;28;20052;-67
2022/05/10 06:12:01;;;;;;;38.15;18.20;;;;;;;;;;5095466;28;20290;-68
2022/05/10 06:14:27;;;;;;;23.92;15.18;;;;;;;;;;5095040;28;20483;-68
2022/05/10 06:16:57;;;;;;;22.13;14.88;;;;;;;;;;5092642;28;20044;-68
2022/05/10 06:19:25;;;;;;;28.27;16.38;;;;;;;;;;5094809;28;20036;-68
2022/05/10 06:21:51;;;;;;;26.75;15.40;;;;;;;;;;5095221;28;20101;-68
2022/05/10 06:24:17;;;;;;;25.95;16.02;;;;;;;;;;5110656;28;20486;-67
2022/05/10 06:26:43;;;;;;;29.42;17.35;;;;;;;;;;5095051;28;20048;-68
2022/05/10 06:29:09;;;;;;;21.52;15.93;;;;;;;;;;5095235;28;20048;-68
2022/05/10 06:31:36;;;;;;;24.85;15.90;;;;;;;;;;5095064;28;20098;-67
2022/05/10 06:34:02;;;;;;;28.83;15.90;;;;;;;;;;5094322;28;20491;-67
2022/05/10 06:36:28;;;;;;;21.17;15.23;;;;;;;;;;5094542;28;20036;-68
2022/05/10 06:38:54;;;;;;;46.53;18.58;;;;;;;;;;5094089;28;20051;-68
2022/05/10 06:41:20;;;;;;;29.23;15.77;;;;;;;;;;5091585;28;20398;-67
2022/05/10 06:43:46;;;;;;;31.77;16.48;;;;;;;;;;5094434;28;20044;-68
2022/05/10 06:46:15;;;;;;;21.40;14.85;;;;;;;;;;5095214;28;20506;-68
2022/05/10 06:48:41;;;;;;;30.85;16.63;;;;;;;;;;5094302;28;20052;-68
2022/05/10 06:51:08;;;;;;;22.95;14.43;;;;;;;;;;5095264;28;20050;-68
2022/05/10 06:53:35;;;;;;;25.55;14.90;;;;;;;;;;5095376;28;20066;-68
2022/05/10 06:56:01;;;;;;;50.05;20.05;;;;;;;;;;5093713;28;20044;-68
2022/05/10 06:58:28;;;;;;;35.67;16.88;;;;;;;;;;5094427;28;20040;-67
2022/05/10 07:00:54;;;;;;;22.63;14.93;;;;;;;;;;5094446;28;20483;-68
2022/05/10 07:03:28;;;;;;;25.83;14.48;;;;;;;;;;5094594;28;20128;-68
2022/05/10 07:05:55;;;;;;;20.88;14.68;;;;;;;;;;5094392;28;20094;-68
2022/05/10 07:08:21;;;;;;;23.35;14.57;;;;;;;;;;5094436;28;20105;-68
2022/05/10 07:10:47;;;;;;;22.45;14.10;;;;;;;;;;5094560;28;20032;-68
2022/05/10 07:13:17;;;;;;;41.38;17.10;;;;;;;;;;5094200;28;20032;-68
2022/05/10 07:15:44;;;;;;;23.38;14.48;;;;;;;;;;5094795;28;20052;-68
2022/05/10 07:18:10;;;;;;;25.33;13.68;;;;;;;;;;5093603;28;20070;-67
2022/05/10 07:20:36;;;;;;;21.73;14.32;;;;;;;;;;5094809;28;20047;-66
2022/05/10 07:23:03;;;;;;;37.63;16.15;;;;;;;;;;5094930;28;20048;-67
2022/05/10 07:25:29;;;;;;;19.20;14.05;;;;;;;;;;5094625;28;20136;-67
2022/05/10 07:27:56;;;;;;;26.02;14.23;;;;;;;;;;5094643;28;20129;-67
2022/05/10 07:30:23;;;;;;;35.63;14.73;;;;;;;;;;5093461;28;20059;-67
2022/05/10 07:32:49;;;;;;;24.15;13.82;;;;;;;;;;5094474;28;20466;-66
2022/05/10 07:35:15;;;;;;;30.70;15.85;;;;;;;;;;5095827;28;20050;-67
2022/05/10 07:37:41;;;;;;;48.83;18.10;;;;;;;;;;5094774;28;20420;-67
2022/05/10 07:40:08;;;;;;;52.90;18.92;;;;;;;;;;5094351;28;20048;-67
2022/05/10 07:42:38;;;;;;;65.45;22.20;;;;;;;;;;5092342;28;20052;-67
2022/05/10 07:45:06;;;;;;;48.80;18.92;;;;;;;;;;5093484;28;20036;-67
2022/05/10 07:47:32;;;;;;;28.92;13.60;;;;;;;;;;5092599;28;20113;-67
2022/05/10 07:49:58;;;;;;;26.20;12.52;;;;;;;;;;5092328;28;20044;-67
2022/05/10 07:52:24;;;;;;;20.70;11.68;;;;;;;;;;5092485;28;20376;-67
2022/05/10 07:54:50;;;;;;;14.98;10.75;;;;;;;;;;5093128;28;20040;-67
2022/05/10 07:57:16;;;;;;;20.02;10.23;;;;;;;;;;5093297;28;20032;-67
2022/05/10 07:59:42;;;;;;;16.77;10.90;;;;;;;;;;5089490;28;20041;-68
2022/05/10 08:02:08;;;;;;;19.70;10.73;;;;;;;;;;5093217;28;20044;-67
2022/05/10 08:04:35;;;;;;;18.45;10.82;;;;;;;;;;5092908;28;20051;-67
2022/05/10 08:07:01;;;;;;;17.60;9.95;;;;;;;;;;5092696;28;20573;-67
2022/05/10 08:09:27;;;;;;;20.95;9.98;;;;;;;;;;5092808;28;20083;-68
2022/05/10 08:11:54;;;;;;;22.55;10.18;;;;;;;;;;5091340;28;20036;-68
2022/05/10 08:14:20;;;;;;;15.20;8.38;;;;;;;;;;5091594;28;20048;-68
2022/05/10 08:16:46;;;;;;;15.65;8.82;;;;;;;;;;5092896;28;20044;-68
2022/05/10 08:19:12;;;;;;;16.02;8.40;;;;;;;;;;5092797;28;20115;-68
2022/05/10 08:21:38;;;;;;;14.82;8.38;;;;;;;;;;5092089;28;20048;-68
2022/05/10 08:24:05;;;;;;;18.80;8.27;;;;;;;;;;5089408;28;20051;-68
2022/05/10 08:26:31;;;;;;;18.33;7.63;;;;;;;;;;5091408;28;20482;-68
2022/05/10 08:28:57;;;;;;;15.55;8.20;;;;;;;;;;5092621;28;20048;-68
2022/05/10 08:31:23;;;;;;;15.73;8.32;;;;;;;;;;5092419;28;20121;-68
2022/05/10 08:33:49;;;;;;;18.30;8.73;;;;;;;;;;5092817;28;20040;-68
2022/05/10 08:36:15;;;;;;;16.52;8.10;;;;;;;;;;5092198;28;20096;-68
2022/05/10 08:38:41;;;;;;;14.43;8.07;;;;;;;;;;5092427;28;20051;-68
2022/05/10 08:41:33;;;;;;;16.42;8.18;;;;;;;;;;5092258;28;20085;-68
2022/05/10 08:44:08;;;;;;;12.48;7.18;;;;;;;;;;5092494;28;20036;-68
2022/05/10 08:46:37;;;;;;;21.63;9.13;;;;;;;;;;5092375;28;20150;-68
2022/05/10 08:49:07;;;;;;;14.60;7.57;;;;;;;;;;5092475;28;20035;-68
2022/05/10 08:51:33;;;;;;;14.68;7.78;;;;;;;;;;5091242;28;20044;-68
2022/05/10 08:53:59;;;;;;;12.75;7.50;;;;;;;;;;5089503;28;20483;-68
2022/05/10 08:56:27;;;;;;;12.55;7.68;;;;;;;;;;5090939;28;20043;-68
2022/05/10 08:58:53;;;;;;;19.17;8.27;;;;;;;;;;5090161;28;20128;-68
2022/05/10 09:01:21;;;;;;;13.45;7.03;;;;;;;;;;5096776;28;20127;-68
2022/05/10 09:03:56;;;;;;;12.68;6.88;;;;;;;;;;5099641;28;20123;-67
2022/05/10 09:06:52;;;;;;;10.93;6.65;;;;;;;;;;5089938;28;20046;-68
2022/05/10 09:09:29;;;;;;;13.30;7.20;;;;;;;;;;5049560;28;20045;-68
2022/05/10 09:12:04;;;;;;;19.00;8.15;;;;;;;;;;5032953;28;20122;-68
2022/05/10 09:14:33;;;;;;;14.95;7.28;;;;;;;;;;5049582;28;20076;-68
2022/05/10 09:17:00;;;;;;;38.17;10.60;;;;;;;;;;5032664;28;20466;-68
2022/05/10 09:19:39;;;;;;;12.05;7.35;;;;;;;;;;5049575;28;20053;-68
2022/05/10 09:22:12;;;;;;;13.38;7.35;;;;;;;;;;5046642;28;20122;-68
2022/05/10 09:24:47;;;;;;;12.30;7.13;;;;;;;;;;5032987;28;20403;-68
2022/05/10 09:27:14;;;;;;;20.83;8.27;;;;;;;;;;5033426;28;20049;-68
2022/05/10 09:29:42;;;;;;;11.60;6.88;;;;;;;;;;5050327;28;20061;-67
2022/05/10 09:35:01;;;;;;;14.57;7.60;;;;;;;;;;5053909;28;20052;-68
2022/05/10 09:37:27;;;;;;;34.75;10.57;;;;;;;;;;5053756;28;20508;-68
2022/05/10 09:39:56;;;;;;;25.88;7.95;;;;;;;;;;5053546;28;20079;-68
2022/05/10 09:42:22;;;;;;;;;;;;;;;;;;5054106;28;20435;-67
2022/05/10 09:44:57;;;;;;;13.60;7.43;;;;;;;;;;5059238;28;19969;-67
2022/05/10 09:47:23;;;;;;;19.50;7.40;;;;;;;;;;5095837;28;20036;-67
2022/05/10 09:49:49;;;;;;;14.27;7.25;;;;;;;;;;5093003;28;20117;-68
2022/05/10 09:52:19;;;;;;;14.35;7.35;;;;;;;;;;5095489;28;20046;-68
2022/05/10 09:54:46;;;;;;;16.52;7.97;;;;;;;;;;5095993;28;20094;-68
2022/05/10 09:57:25;;;;;;;11.07;6.40;;;;;;;;;;5095778;28;20051;-68
2022/05/10 09:59:50;;;;;;;;;;;;;;;;;;5095852;28;20122;-67
2022/05/10 10:02:29;;;;;;;35.40;8.13;;;;;;;;;;5095796;28;20015;-67
2022/05/10 10:04:55;;;;;;;10.15;6.72;;;;;;;;;;5095969;28;20082;-68
2022/05/10 10:07:22;;;;;;;11.60;6.72;;;;;;;;;;5095642;28;20079;-68
2022/05/10 10:09:48;;;;;;;10.40;7.40;;;;;;;;;;5095540;28;20055;-68
2022/05/10 10:12:17;;;;;;;18.05;8.57;;;;;;;;;;5095751;28;20040;-68
2022/05/10 10:14:45;;;;;;;17.55;7.47;;;;;;;;;;5095234;28;20044;-68
2022/05/10 10:17:20;;;;;;;14.90;7.70;;;;;;;;;;5095338;28;20399;-67
2022/05/10 10:19:49;;;;;;;11.90;7.53;;;;;;;;;;5111300;28;20051;-70
2022/05/10 10:22:17;;;;;;;13.88;7.15;;;;;;;;;;5095378;28;20071;-68
2022/05/10 10:25:01;;;;;;;17.70;7.47;;;;;;;;;;5093888;28;20506;-68
2022/05/10 10:27:34;;;;;;;10.65;7.30;;;;;;;;;;5095137;28;20127;-68
2022/05/10 10:30:27;;;;;;;9.45;7.10;;;;;;;;;;5110660;28;20064;-68
2022/05/10 10:32:56;;;;;;;11.20;7.00;;;;;;;;;;5094386;28;20490;-68
2022/05/10 10:35:31;;;;;;;26.55;7.60;;;;;;;;;;5095048;28;20090;-68
2022/05/10 10:37:59;;;;;;;9.85;6.57;;;;;;;;;;5094775;28;20113;-68
2022/05/10 10:40:26;;;;;;;14.68;7.20;;;;;;;;;;5074873;28;20040;-68
2022/05/10 10:42:55;;;;;;;11.85;7.28;;;;;;;;;;5074799;28;20115;-68
2022/05/10 10:45:28;;;;;;;18.17;6.82;;;;;;;;;;5073057;28;20128;-68
2022/05/10 10:47:57;;;;;;;12.07;6.47;;;;;;;;;;5074694;28;20075;-68
2022/05/10 10:50:25;;;;;;;8.45;5.75;;;;;;;;;;5074579;28;20044;-68
2022/05/10 10:52:52;;;;;;;9.85;6.28;;;;;;;;;;5074709;28;20036;-68
2022/05/10 10:55:19;;;;;;;14.48;7.32;;;;;;;;;;5074583;28;20040;-68
2022/05/10 10:57:54;;;;;;;9.35;6.13;;;;;;;;;;5073515;28;20390;-68
2022/05/10 11:00:24;;;;;;;17.45;7.10;;;;;;;;;;5074356;28;20036;-68
2022/05/10 11:03:00;;;;;;;10.30;6.80;;;;;;;;;;5074774;28;20053;-68
2022/05/10 11:05:45;;;;;;;16.60;7.50;;;;;;;;;;5074442;28;20044;-68
2022/05/10 11:08:26;;;;;;;16.52;7.00;;;;;;;;;;5074260;28;20071;-68
2022/05/10 11:11:02;;;;;;;10.43;6.32;;;;;;;;;;5074068;28;20106;-68
2022/05/10 11:13:28;;;;;;;17.70;7.13;;;;;;;;;;5072689;28;20049;-68
2022/05/10 11:16:13;;;;;;;12.10;6.40;;;;;;;;;;5074193;28;20067;-68
2022/05/10 11:18:58;;;;;;;16.27;6.25;;;;;;;;;;5072857;28;20071;-68
2022/05/10 11:21:44;;;;;;;13.57;6.38;;;;;;;;;;5072494;28;20109;-69
2022/05/10 11:24:10;;;;;;;11.93;6.78;;;;;;;;;;5074065;28;20037;-68
2022/05/10 11:26:42;;;;;;;15.90;6.25;;;;;;;;;;5072581;28;20118;-68
2022/05/10 11:29:28;;;;;;;10.35;6.05;;;;;;;;;;5073615;28;20054;-68
2022/05/10 11:32:02;;;;;;;32.40;8.07;;;;;;;;;;5074139;28;20189;-68
2022/05/10 11:34:44;;;;;;;12.77;6.20;;;;;;;;;;5073849;28;20043;-67
2022/05/10 11:37:12;;;;;;;28.88;7.82;;;;;;;;;;5073872;28;20036;-68
2022/05/10 11:39:44;;;;;;;14.77;7.05;;;;;;;;;;5073526;28;20041;-67
2022/05/10 11:42:33;;;;;;;17.58;7.07;;;;;;;;;;5073482;28;20044;-67
2022/05/10 11:45:18;;;;;;;10.63;6.57;;;;;;;;;;5073621;28;20048;-67
2022/05/10 11:47:44;;;;;;;9.80;6.22;;;;;;;;;;5073289;28;20391;-67
2022/05/10 11:50:28;;;;;;;17.85;7.30;;;;;;;;;;5073592;28;20106;-67
2022/05/10 11:53:13;;;;;;;12.07;7.00;;;;;;;;;;5073546;28;20047;-67
2022/05/10 11:55:59;;;;;;;16.65;6.95;;;;;;;;;;5084245;28;20040;-67
2022/05/10 11:58:27;;;;;;;10.93;6.55;;;;;;;;;;5081347;28;20044;-67
2022/05/10 12:00:54;;;;;;;14.80;7.78;;;;;;;;;;5092564;28;20470;-67
2022/05/10 12:03:39;;;;;;;15.60;6.73;;;;;;;;;;5089501;28;20525;-68
2022/05/10 12:06:23;;;;;;;12.40;6.43;;;;;;;;;;5092977;28;20119;-69
2022/05/10 12:08:50;;;;;;;10.27;5.57;;;;;;;;;;5093369;28;20104;-68
2022/05/10 12:11:28;;;;;;;12.57;5.88;;;;;;;;;;5093214;28;20040;-68
2022/05/10 12:22:09;;;;;;;12.50;5.38;;;;;;;;;;5093076;28;20486;-68
2022/05/10 12:24:37;;;;;;;25.38;8.13;;;;;;;;;;5091477;28;20402;-68
2022/05/10 12:27:09;;;;;;;18.57;6.77;;;;;;;;;;5091931;28;20486;-68
2022/05/10 12:29:38;;;;;;;8.43;5.07;;;;;;;;;;5072650;28;20302;-68
2022/05/10 12:32:11;;;;;;;17.88;6.10;;;;;;;;;;5072521;28;20558;-68
2022/05/10 12:34:40;;;;;;;16.52;6.38;;;;;;;;;;5072950;28;20062;-68
2022/05/10 12:37:26;;;;;;;11.15;5.10;;;;;;;;;;5100391;28;20145;-69
2022/05/10 12:40:05;;;;;;;14.93;5.45;;;;;;;;;;5092927;28;20047;-68
2022/05/10 12:42:59;;;;;;;14.63;6.63;;;;;;;;;;5089553;28;20040;-68
2022/05/10 12:45:44;;;;;;;11.88;5.70;;;;;;;;;;5091846;28;20506;-68
2022/05/10 12:48:10;;;;;;;15.73;5.68;;;;;;;;;;5080955;28;20055;-68
2022/05/10 12:50:54;;;;;;;13.40;6.22;;;;;;;;;;5072823;28;20046;-69
2022/05/10 12:53:29;;;;;;;20.15;6.70;;;;;;;;;;5102407;28;20047;-68
2022/05/10 12:56:00;;;;;;;14.88;5.60;;;;;;;;;;5090046;28;20058;-67
2022/05/10 12:58:34;;;;;;;11.65;5.90;;;;;;;;;;5091738;28;20395;-68
2022/05/10 13:01:01;;;;;;;14.45;6.07;;;;;;;;;;5092857;28;20115;-68
2022/05/10 13:03:45;;;;;;;17.65;6.45;;;;;;;;;;5091158;28;20050;-68
2022/05/10 13:06:25;;;;;;;13.30;6.65;;;;;;;;;;5092828;28;20100;-68
2022/05/10 13:09:10;;;;;;;11.75;5.70;;;;;;;;;;5097205;28;20072;-68
2022/05/10 13:11:54;;;;;;;49.72;7.47;;;;;;;;;;5099043;28;20048;-67
2022/05/10 13:14:21;;;;;;;16.27;5.35;;;;;;;;;;5092262;28;20044;-67
2022/05/10 13:16:50;;;;;;;9.80;5.68;;;;;;;;;;5076413;28;20127;-68
2022/05/10 13:19:17;;;;;;;10.43;6.25;;;;;;;;;;5079867;28;20101;-68
2022/05/10 13:21:43;;;;;;;13.45;5.85;;;;;;;;;;5094987;28;20083;-68
2022/05/10 13:24:11;;;;;;;12.57;6.10;;;;;;;;;;5098976;28;20547;-68
2022/05/10 13:26:49;;;;;;;10.68;5.80;;;;;;;;;;5096337;28;20384;-67
2022/05/10 13:29:15;;;;;;;17.60;7.32;;;;;;;;;;5087749;28;20056;-67
2022/05/10 13:31:41;;;;;;;16.25;6.32;;;;;;;;;;5076165;28;20098;-68
2022/05/10 13:34:10;;;;;;;10.13;5.63;;;;;;;;;;5075884;28;20119;-67
2022/05/10 13:36:37;;;;;;;12.88;6.30;;;;;;;;;;5075931;28;20388;-68
2022/05/10 13:39:04;;;;;;;14.13;6.90;;;;;;;;;;5076247;28;20053;-68
2022/05/10 13:41:31;;;;;;;25.92;7.70;;;;;;;;;;5075969;28;20079;-67
2022/05/10 13:43:59;;;;;;;13.63;6.68;;;;;;;;;;5087460;28;20044;-68
2022/05/10 13:46:27;;;;;;;13.50;5.57;;;;;;;;;;5096140;28;20101;-69
2022/05/10 13:48:58;;;;;;;17.15;5.30;;;;;;;;;;5080560;28;20506;-68
2022/05/10 13:51:37;;;;;;;8.50;4.82;;;;;;;;;;5076000;28;20052;-69
2022/05/10 13:54:06;;;;;;;11.50;4.78;;;;;;;;;;5075122;28;20036;-69
2022/05/10 13:56:37;;;;;;;10.57;5.15;;;;;;;;;;5084708;28;20076;-68
2022/05/10 13:59:03;;;;;;;14.48;5.50;;;;;;;;;;5091183;28;20051;-68
2022/05/10 14:01:49;;;;;;;12.23;5.55;;;;;;;;;;5095774;28;20047;-70
2022/05/10 14:04:16;;;;;;;18.40;6.50;;;;;;;;;;5094345;28;20483;-67
2022/05/10 14:06:45;;;;;;;9.35;4.93;;;;;;;;;;5095651;28;20775;-68
2022/05/10 14:09:13;;;;;;;13.65;5.65;;;;;;;;;;5095824;28;20145;-68
2022/05/10 14:11:40;;;;;;;13.18;5.30;;;;;;;;;;5079478;28;20056;-68
2022/05/10 14:14:13;;;;;;;11.68;5.07;;;;;;;;;;5075257;28;20045;-68
2022/05/10 14:16:40;;;;;;;27.63;8.88;;;;;;;;;;5075085;28;20071;-67
2022/05/10 14:19:15;;;;;;;10.63;5.20;;;;;;;;;;5072953;28;20071;-66
2022/05/10 14:21:43;;;;;;;10.75;4.85;;;;;;;;;;5089004;28;20055;-68
2022/05/10 14:24:10;;;;;;;11.75;5.40;;;;;;;;;;5095414;28;20073;-68
2022/05/10 14:26:36;;;;;;;11.52;4.82;;;;;;;;;;5078587;28;20567;-67
2022/05/10 14:29:13;;;;;;;13.70;4.80;;;;;;;;;;5084860;28;20140;-67
2022/05/10 14:31:40;;;;;;;32.50;9.38;;;;;;;;;;5079963;28;20060;-68
2022/05/10 14:34:09;;;;;;;22.40;7.05;;;;;;;;;;5090460;28;20048;-68
2022/05/10 14:36:38;;;;;;;8.23;4.50;;;;;;;;;;5092818;28;20086;-67
2022/05/10 14:39:04;;;;;;;;;;;;;;;;;;5093031;28;20082;-69
2022/05/10 14:41:33;;;;;;;16.33;5.63;;;;;;;;;;5091985;28;19973;-68
2022/05/10 14:43:59;;;;;;;14.57;4.75;;;;;;;;;;5084713;28;20040;-68
2022/05/10 14:46:35;;;;;;;14.77;3.95;;;;;;;;;;5094905;28;20044;-67
2022/05/10 14:49:04;;;;;;;13.35;4.25;;;;;;;;;;5100708;28;20090;-67
2022/05/10 14:51:44;;;;;;;10.52;3.75;;;;;;;;;;5094158;28;20055;-68
2022/05/10 14:54:11;;;;;;;15.27;3.95;;;;;;;;;;5093611;28;20101;-67